Time;durP1;ratioP1;P1;durP2;ratioP2;P2;SDS_P1;SDS_P2;PMS_P1;PMS_P2;Temp;Humidity;BMP_temperature;BMP_pressure;BME280_temperature;BME280_humidity;BME280_pressure;Samples;Min_cycle;Max_cycle;Signal;HPM_P1;HPM_P2
2021/07/27 00:02:04;;;;;;;;;;;;;;;;;;2141619;59;2298;-71
2021/07/27 00:04:29;;;;;;;;;;;;;;;;;;2141440;67;1077;-70
2021/07/27 00:06:54;;;;;;;;;;;;;;;;;;2142392;59;1145;-71
2021/07/27 00:09:19;;;;;;;;;;;;;;;;;;2141665;67;1279;-70
2021/07/27 00:11:44;;;;;;;;;;;;;;;;;;2144380;66;1258;-70
2021/07/27 00:14:10;;;;;;;;;;;;;;;;;;2143428;66;1145;-70
2021/07/27 00:16:36;;;;;;;;;;;;;;;;;;2143169;66;1344;-70
2021/07/27 00:19:01;;;;;;;;;;;;;;;;;;2143037;66;1176;-70
2021/07/27 00:21:26;;;;;;;;;;;;;;;;;;2143562;66;1921;-70
2021/07/27 00:23:51;;;;;;;;;;;;;;;;;;2142579;66;1216;-70
2021/07/27 00:26:17;;;;;;;;;;;;;;;;;;2143466;66;1062;-71
2021/07/27 00:28:42;;;;;;;;;;;;;;;;;;2144049;66;1188;-70
2021/07/27 00:31:16;;;;;;;;;;;;;;;;;;2143392;66;1080;-70
2021/07/27 00:33:41;;;;;;;;;;;;;;;;;;2143881;66;1187;-70
2021/07/27 00:36:08;;;;;;;;;;;;;;;;;;2143416;66;1219;-69
2021/07/27 00:38:33;;;;;;;;;;;;;;;;;;2144005;66;1217;-71
2021/07/27 00:40:58;;;;;;;;;;;;;;;;;;2143853;66;1026;-70
2021/07/27 00:43:23;;;;;;;;;;;;;;;;;;2144278;66;1925;-70
2021/07/27 00:45:49;;;;;;;;;;;;;;;;;;2143307;66;1153;-69
2021/07/27 00:48:14;;;;;;;;;;;;;;;;;;2142992;59;1326;-70
2021/07/27 00:50:39;;;;;;;;;;;;;;;;;;2142185;59;1431;-69
2021/07/27 00:53:05;;;;;;;;;;;;;;;;;;2144412;66;1148;-70
2021/07/27 00:55:31;;;;;;;;;;;;;;;;;;2141579;66;1061;-70
2021/07/27 00:57:57;;;;;;;;;;;;;;;;;;2144540;66;1184;-69
2021/07/27 01:00:23;;;;;;;;;;;;;;;;;;2142279;66;1210;-70
2021/07/27 01:02:48;;;;;;;;;;;;;;;;;;2144464;59;1973;-70
2021/07/27 01:05:14;;;;;;;;;;;;;;;;;;2143106;66;1133;-69
2021/07/27 01:07:40;;;;;;;;;;;;;;;;;;2143835;66;1403;-69
2021/07/27 01:10:05;;;;;;;;;;;;;;;;;;2143773;66;1085;-70
2021/07/27 01:12:31;;;;;;;;;;;;;;;;;;2143090;66;1065;-70
2021/07/27 01:14:56;;;;;;;;;;;;;;;;;;2143775;66;1238;-70
2021/07/27 01:17:21;;;;;;;;;;;;;;;;;;2143225;66;1211;-69
2021/07/27 01:19:57;;;;;;;;;;;;;;;;;;2142349;59;2001;-70
2021/07/27 01:39:20;;;;;;;;;;;;;;;;;;2141982;59;1277;-70
2021/07/27 01:44:30;;;;;;;;;;;;;;;;;;2141840;59;1283;-70
2021/07/27 01:46:56;;;;;;;;;;;;;;;;;;2141437;66;1601;-72
2021/07/27 01:49:22;;;;;;;;;;;;;;;;;;2142360;59;1430;-69
2021/07/27 01:51:47;;;;;;;;;;;;;;;;;;2142566;66;1438;-70
2021/07/27 01:54:15;;;;;;;;;;;;;;;;;;2144552;66;1126;-71
2021/07/27 01:56:40;;;;;;;;;;;;;;;;;;2143165;66;1183;-71
2021/07/27 01:59:06;;;;;;;;;;;;;;;;;;2144011;66;1199;-70
2021/07/27 02:01:31;;;;;;;;;;;;;;;;;;2142670;59;1991;-69
2021/07/27 02:03:56;;;;;;;;;;;;;;;;;;2144996;66;1162;-69
2021/07/27 02:06:21;;;;;;;;;;;;;;;;;;2140501;66;2243;-69
2021/07/27 02:08:47;;;;;;;;;;;;;;;;;;2142780;66;1411;-70
2021/07/27 02:11:18;;;;;;;;;;;;;;;;;;2142675;66;1223;-69
2021/07/27 02:13:52;;;;;;;;;;;;;;;;;;2143922;66;1279;-69
2021/07/27 02:16:18;;;;;;;;;;;;;;;;;;2143350;66;1167;-70
2021/07/27 02:18:43;;;;;;;;;;;;;;;;;;2143722;58;2915;-69
2021/07/27 02:21:08;;;;;;;;;;;;;;;;;;2142674;59;1352;-70
2021/07/27 02:23:34;;;;;;;;;;;;;;;;;;2143174;59;1984;-69
2021/07/27 02:25:59;;;;;;;;;;;;;;;;;;2143854;66;1231;-69
2021/07/27 02:28:24;;;;;;;;;;;;;;;;;;2143115;59;1266;-70
2021/07/27 02:30:56;;;;;;;;;;;;;;;;;;2143846;66;1247;-70
2021/07/27 02:33:22;;;;;;;;;;;;;;;;;;2143357;66;1128;-69
2021/07/27 02:35:47;;;;;;;;;;;;;;;;;;2141728;59;1205;-70
2021/07/27 02:38:12;;;;;;;;;;;;;;;;;;2144122;66;1214;-70
2021/07/27 02:40:37;;;;;;;;;;;;;;;;;;2143424;66;1139;-68
2021/07/27 02:43:04;;;;;;;;;;;;;;;;;;2143627;66;1918;-70
2021/07/27 02:45:30;;;;;;;;;;;;;;;;;;2143470;66;1182;-69
2021/07/27 02:47:55;;;;;;;;;;;;;;;;;;2142627;59;1365;-71
2021/07/27 02:50:20;;;;;;;;;;;;;;;;;;2141325;59;1428;-68
2021/07/27 02:52:45;;;;;;;;;;;;;;;;;;2143004;59;1220;-69
2021/07/27 02:55:11;;;;;;;;;;;;;;;;;;2143717;66;1190;-70
2021/07/27 02:57:37;;;;;;;;;;;;;;;;;;2142989;66;1213;-70
2021/07/27 03:00:03;;;;;;;;;;;;;;;;;;2144936;66;1212;-71
2021/07/27 03:02:38;;;;;;;;;;;;;;;;;;2143356;59;1968;-69
2021/07/27 03:05:04;;;;;;;;;;;;;;;;;;2142558;66;1262;-70
2021/07/27 03:07:48;;;;;;;;;;;;;;;;;;2143497;66;1212;-69
2021/07/27 03:10:17;;;;;;;;;;;;;;;;;;2143849;66;1176;-70
2021/07/27 03:12:46;;;;;;;;;;;;;;;;;;2143249;67;1045;-69
2021/07/27 03:15:12;;;;;;;;;;;;;;;;;;2143699;67;1151;-68
2021/07/27 03:17:37;;;;;;;;;;;;;;;;;;2143392;59;1155;-70
2021/07/27 03:20:03;;;;;;;;;;;;;;;;;;2142418;67;1166;-69
2021/07/27 03:22:29;;;;;;;;;;;;;;;;;;2141478;67;1925;-70
2021/07/27 03:24:54;;;;;;;;;;;;;;;;;;2144540;67;1204;-70
2021/07/27 03:27:19;;;;;;;;;;;;;;;;;;2143151;66;1179;-70
2021/07/27 03:29:44;;;;;;;;;;;;;;;;;;2143789;66;1236;-70
2021/07/27 03:32:09;;;;;;;;;;;;;;;;;;2144011;66;1174;-69
2021/07/27 03:34:34;;;;;;;;;;;;;;;;;;2144025;66;1129;-73
2021/07/27 03:37:00;;;;;;;;;;;;;;;;;;2144209;66;1159;-68
2021/07/27 03:39:25;;;;;;;;;;;;;;;;;;2143829;66;1242;-70
2021/07/27 03:41:50;;;;;;;;;;;;;;;;;;2144007;66;1924;-70
2021/07/27 03:44:16;;;;;;;;;;;;;;;;;;2143807;66;1155;-69
2021/07/27 03:46:43;;;;;;;;;;;;;;;;;;2144013;66;1207;-70
2021/07/27 03:49:09;;;;;;;;;;;;;;;;;;2142392;59;1588;-68
2021/07/27 03:51:34;;;;;;;;;;;;;;;;;;2142279;66;1269;-69
2021/07/27 03:53:59;;;;;;;;;;;;;;;;;;2144061;59;1280;-70
2021/07/27 03:56:24;;;;;;;;;;;;;;;;;;2144053;66;1203;-69
2021/07/27 03:58:49;;;;;;;;;;;;;;;;;;2143300;66;1199;-70
2021/07/27 04:01:14;;;;;;;;;;;;;;;;;;2144080;59;1189;-68
2021/07/27 04:03:40;;;;;;;;;;;;;;;;;;2140379;66;1932;-70
2021/07/27 04:06:05;;;;;;;;;;;;;;;;;;2144521;66;1194;-68
2021/07/27 04:08:30;;;;;;;;;;;;;;;;;;2141467;67;2396;-70
2021/07/27 04:11:05;;;;;;;;;;;;;;;;;;2144594;66;1080;-69
2021/07/27 04:13:32;;;;;;;;;;;;;;;;;;2142262;66;1179;-70
2021/07/27 04:16:01;;;;;;;;;;;;;;;;;;2142335;66;1254;-69
2021/07/27 04:18:26;;;;;;;;;;;;;;;;;;2141778;59;1264;-70
2021/07/27 04:20:57;;;;;;;;;;;;;;;;;;2144885;66;1207;-70
2021/07/27 04:23:22;;;;;;;;;;;;;;;;;;2141672;66;1921;-70
2021/07/27 04:25:47;;;;;;;;;;;;;;;;;;2143609;66;1118;-69
2021/07/27 04:28:12;;;;;;;;;;;;;;;;;;2142536;66;1256;-73
2021/07/27 04:30:38;;;;;;;;;;;;;;;;;;2144652;66;1183;-68
2021/07/27 04:33:03;;;;;;;;;;;;;;;;;;2143689;66;1223;-72
2021/07/27 04:35:28;;;;;;;;;;;;;;;;;;2144718;66;1111;-71
2021/07/27 04:37:56;;;;;;;;;;;;;;;;;;2143764;66;1254;-71
2021/07/27 04:40:21;;;;;;;;;;;;;;;;;;2143186;66;1179;-72
2021/07/27 04:42:46;;;;;;;;;;;;;;;;;;2143808;66;1937;-71
2021/07/27 04:45:11;;;;;;;;;;;;;;;;;;2143268;66;1151;-72
2021/07/27 04:47:36;;;;;;;;;;;;;;;;;;2143950;59;1394;-71
2021/07/27 04:50:02;;;;;;;;;;;;;;;;;;2141870;59;1304;-71
2021/07/27 04:52:30;;;;;;;;;;;;;;;;;;2143572;66;1179;-72
2021/07/27 04:54:56;;;;;;;;;;;;;;;;;;2143608;66;1143;-71
2021/07/27 04:57:21;;;;;;;;;;;;;;;;;;2143813;66;1250;-71
2021/07/27 04:59:46;;;;;;;;;;;;;;;;;;2143205;66;1186;-69
2021/07/27 05:02:11;;;;;;;;;;;;;;;;;;2144262;59;1928;-70
2021/07/27 05:04:36;;;;;;;;;;;;;;;;;;2141140;59;2323;-68
2021/07/27 05:07:05;;;;;;;;;;;;;;;;;;2141621;66;1218;-70
2021/07/27 05:09:30;;;;;;;;;;;;;;;;;;2141064;66;1519;-70
2021/07/27 05:11:56;;;;;;;;;;;;;;;;;;2142022;66;1159;-70
2021/07/27 05:14:21;;;;;;;;;;;;;;;;;;2142370;66;1361;-70
2021/07/27 05:16:46;;;;;;;;;;;;;;;;;;2143472;66;1197;-73
2021/07/27 05:19:11;;;;;;;;;;;;;;;;;;2141484;66;1299;-70
2021/07/27 05:21:37;;;;;;;;;;;;;;;;;;2141612;66;2000;-70
2021/07/27 05:24:02;;;;;;;;;;;;;;;;;;2141744;66;1348;-68
2021/07/27 05:26:27;;;;;;;;;;;;;;;;;;2143262;66;1195;-69
2021/07/27 05:28:52;;;;;;;;;;;;;;;;;;2143355;66;1238;-70
2021/07/27 05:31:19;;;;;;;;;;;;;;;;;;2143419;66;1152;-70
2021/07/27 05:33:44;;;;;;;;;;;;;;;;;;2144039;66;1077;-70
2021/07/27 05:36:09;;;;;;;;;;;;;;;;;;2142998;66;1144;-68
2021/07/27 05:38:34;;;;;;;;;;;;;;;;;;2144043;66;1333;-69
2021/07/27 05:40:59;;;;;;;;;;;;;;;;;;2143280;66;1148;-69
2021/07/27 05:43:25;;;;;;;;;;;;;;;;;;2144152;66;1995;-70
2021/07/27 05:45:50;;;;;;;;;;;;;;;;;;2142847;66;1243;-69
2021/07/27 05:48:15;;;;;;;;;;;;;;;;;;2142999;59;1310;-70
2021/07/27 05:50:40;;;;;;;;;;;;;;;;;;2142041;59;1386;-69
2021/07/27 05:53:05;;;;;;;;;;;;;;;;;;2144479;66;1722;-69
2021/07/27 05:55:31;;;;;;;;;;;;;;;;;;2143103;66;1164;-69
2021/07/27 05:57:56;;;;;;;;;;;;;;;;;;2144342;66;1193;-70
2021/07/27 06:00:21;;;;;;;;;;;;;;;;;;2142948;66;1160;-70
2021/07/27 06:02:46;;;;;;;;;;;;;;;;;;2144604;59;1912;-70
2021/07/27 06:05:12;;;;;;;;;;;;;;;;;;2143102;66;1220;-68
2021/07/27 06:07:37;;;;;;;;;;;;;;;;;;2142109;66;2100;-69
2021/07/27 06:10:02;;;;;;;;;;;;;;;;;;2141875;66;1196;-71
2021/07/27 06:12:27;;;;;;;;;;;;;;;;;;2142029;66;1359;-70
2021/07/27 06:14:53;;;;;;;;;;;;;;;;;;2140279;59;1923;-68
2021/07/27 06:17:18;;;;;;;;;;;;;;;;;;2142106;66;1284;-69
2021/07/27 06:19:43;;;;;;;;;;;;;;;;;;2142205;59;1336;-68
2021/07/27 06:22:08;;;;;;;;;;;;;;;;;;2141577;66;1937;-70
2021/07/27 06:24:33;;;;;;;;;;;;;;;;;;2142518;66;1282;-70
2021/07/27 06:26:59;;;;;;;;;;;;;;;;;;2142832;66;1203;-69
2021/07/27 06:29:24;;;;;;;;;;;;;;;;;;2143304;66;1233;-70
2021/07/27 06:31:49;;;;;;;;;;;;;;;;;;2143497;66;1214;-70
2021/07/27 06:34:14;;;;;;;;;;;;;;;;;;2141283;59;2138;-68
2021/07/27 06:36:40;;;;;;;;;;;;;;;;;;2141132;59;1837;-68
2021/07/27 06:39:05;;;;;;;;;;;;;;;;;;2142747;66;1369;-69
2021/07/27 06:41:30;;;;;;;;;;;;;;;;;;2142444;66;1404;-69
2021/07/27 06:43:57;;;;;;;;;;;;;;;;;;2143344;66;1944;-68
2021/07/27 06:46:22;;;;;;;;;;;;;;;;;;2143234;66;1259;-67
2021/07/27 06:48:47;;;;;;;;;;;;;;;;;;2143103;59;1561;-70
2021/07/27 06:51:13;;;;;;;;;;;;;;;;;;2141637;66;1308;-69
2021/07/27 06:53:39;;;;;;;;;;;;;;;;;;2144966;66;1151;-68
2021/07/27 06:56:05;;;;;;;;;;;;;;;;;;2143093;66;1219;-69
2021/07/27 06:58:30;;;;;;;;;;;;;;;;;;2143302;66;1235;-69
2021/07/27 07:00:58;;;;;;;;;;;;;;;;;;2143067;59;1333;-70
2021/07/27 07:03:23;;;;;;;;;;;;;;;;;;2143756;66;1923;-69
2021/07/27 07:05:48;;;;;;;;;;;;;;;;;;2140792;59;2219;-70
2021/07/27 07:08:13;;;;;;;;;;;;;;;;;;2141443;66;1378;-69
2021/07/27 07:10:38;;;;;;;;;;;;;;;;;;2142537;66;1375;-70
2021/07/27 07:13:04;;;;;;;;;;;;;;;;;;2143494;66;1139;-72
2021/07/27 07:15:29;;;;;;;;;;;;;;;;;;2142909;66;1157;-69
2021/07/27 07:17:54;;;;;;;;;;;;;;;;;;2143420;59;1207;-69
2021/07/27 07:20:20;;;;;;;;;;;;;;;;;;2140265;59;2040;-68
2021/07/27 07:22:45;;;;;;;;;;;;;;;;;;2140047;59;1929;-69
2021/07/27 07:25:11;;;;;;;;;;;;;;;;;;2141165;67;1152;-69
2021/07/27 07:27:37;;;;;;;;;;;;;;;;;;2141052;67;1263;-70
2021/07/27 07:30:02;;;;;;;;;;;;;;;;;;2142486;67;1877;-68
2021/07/27 07:32:27;;;;;;;;;;;;;;;;;;2140265;59;1857;-67
2021/07/27 07:34:53;;;;;;;;;;;;;;;;;;2140874;67;2208;-71
2021/07/27 07:37:18;;;;;;;;;;;;;;;;;;2136787;59;1972;-69
2021/07/27 07:39:43;;;;;;;;;;;;;;;;;;2140018;59;1454;-70
2021/07/27 07:42:09;;;;;;;;;;;;;;;;;;2139164;59;2739;-71
2021/07/27 07:44:35;;;;;;;;;;;;;;;;;;2139583;59;1761;-70
2021/07/27 07:47:00;;;;;;;;;;;;;;;;;;2139524;59;2353;-70
2021/07/27 07:49:26;;;;;;;;;;;;;;;;;;2139833;59;2290;-68
2021/07/27 07:51:52;;;;;;;;;;;;;;;;;;2140469;67;1620;-70
2021/07/27 07:54:18;;;;;;;;;;;;;;;;;;2139338;67;1293;-70
2021/07/27 07:56:43;;;;;;;;;;;;;;;;;;2141030;67;1370;-71
2021/07/27 07:59:09;;;;;;;;;;;;;;;;;;2141818;67;1267;-69
2021/07/27 08:01:34;;;;;;;;;;;;;;;;;;2140984;59;1841;-71
2021/07/27 08:03:59;;;;;;;;;;;;;;;;;;2140301;67;1228;-70
2021/07/27 08:06:25;;;;;;;;;;;;;;;;;;2137249;67;1216;-69
2021/07/27 08:08:51;;;;;;;;;;;;;;;;;;2141001;67;1438;-68
2021/07/27 08:11:16;;;;;;;;;;;;;;;;;;2140579;67;1388;-70
2021/07/27 08:13:41;;;;;;;;;;;;;;;;;;2140699;67;1192;-69
2021/07/27 08:16:09;;;;;;;;;;;;;;;;;;2139172;66;1287;-70
2021/07/27 08:18:35;;;;;;;;;;;;;;;;;;2141061;59;2102;-71
2021/07/27 08:21:00;;;;;;;;;;;;;;;;;;2143165;59;2253;-71
2021/07/27 08:23:25;;;;;;;;;;;;;;;;;;2141653;59;1994;-69
2021/07/27 08:25:50;;;;;;;;;;;;;;;;;;2143421;58;1522;-70
2021/07/27 08:28:16;;;;;;;;;;;;;;;;;;2140674;59;1348;-68
2021/07/27 08:30:41;;;;;;;;;;;;;;;;;;2141239;66;1859;-69
2021/07/27 08:33:06;;;;;;;;;;;;;;;;;;2139871;59;2029;-68
2021/07/27 08:35:31;;;;;;;;;;;;;;;;;;2142393;66;1607;-69
2021/07/27 08:37:56;;;;;;;;;;;;;;;;;;2140855;59;1487;-69
2021/07/27 08:40:22;;;;;;;;;;;;;;;;;;2141415;66;1080;-69
2021/07/27 08:42:48;;;;;;;;;;;;;;;;;;2140525;59;1935;-66
2021/07/27 08:45:13;;;;;;;;;;;;;;;;;;2139169;59;1872;-69
2021/07/27 08:47:43;;;;;;;;;;;;;;;;;;2140529;59;1311;-68
2021/07/27 08:50:09;;;;;;;;;;;;;;;;;;2141443;59;1627;-68
2021/07/27 08:52:34;;;;;;;;;;;;;;;;;;2143526;66;1215;-67
2021/07/27 08:55:00;;;;;;;;;;;;;;;;;;2138310;58;2443;-69
2021/07/27 08:57:25;;;;;;;;;;;;;;;;;;2138912;59;2642;-66
2021/07/27 08:59:51;;;;;;;;;;;;;;;;;;2139114;59;2336;-67
2021/07/27 09:02:28;;;;;;;;;;;;;;;;;;2132839;59;2532;-67
2021/07/27 09:05:10;;;;;;;;;;;;;;;;;;2138173;59;2733;-69
2021/07/27 09:07:35;;;;;;;;;;;;;;;;;;2138925;59;2663;-69
2021/07/27 09:10:17;;;;;;;;;;;;;;;;;;2141024;60;1744;-69
2021/07/27 09:12:55;;;;;;;;;;;;;;;;;;2141123;66;2320;-70
2021/07/27 09:15:23;;;;;;;;;;;;;;;;;;2139439;60;2617;-70
2021/07/27 09:17:55;;;;;;;;;;;;;;;;;;2141091;58;1364;-69
2021/07/27 09:20:27;;;;;;;;;;;;;;;;;;2142567;59;1211;-68
2021/07/27 09:22:52;;;;;;;;;;;;;;;;;;2140474;66;1921;-70
2021/07/27 09:25:18;;;;;;;;;;;;;;;;;;2139319;66;2273;-67
2021/07/27 09:27:43;;;;;;;;;;;;;;;;;;2142405;66;1226;-69
2021/07/27 09:30:08;;;;;;;;;;;;;;;;;;2141777;66;993;-68
2021/07/27 09:32:33;;;;;;;;;;;;;;;;;;2142392;66;1164;-70
2021/07/27 09:35:05;;;;;;;;;;;;;;;;;;2141010;62;2206;-70
2021/07/27 09:37:30;;;;;;;;;;;;;;;;;;2139491;63;2568;-68
2021/07/27 09:40:04;;;;;;;;;;;;;;;;;;2140233;66;2637;-70
2021/07/27 09:42:29;;;;;;;;;;;;;;;;;;2139983;59;1985;-69
2021/07/27 09:44:55;;;;;;;;;;;;;;;;;;2137564;66;2413;-69
2021/07/27 09:47:20;;;;;;;;;;;;;;;;;;2141328;59;1461;-68
2021/07/27 09:49:46;;;;;;;;;;;;;;;;;;2141362;59;1927;-70
2021/07/27 09:52:11;;;;;;;;;;;;;;;;;;2141818;66;1656;-69
2021/07/27 09:54:38;;;;;;;;;;;;;;;;;;2140137;67;2322;-66
2021/07/27 09:57:03;;;;;;;;;;;;;;;;;;2141226;66;1316;-68
2021/07/27 09:59:29;;;;;;;;;;;;;;;;;;2140149;66;2144;-69
2021/07/27 10:02:04;;;;;;;;;;;;;;;;;;2141660;59;1919;-68
2021/07/27 10:04:37;;;;;;;;;;;;;;;;;;2141908;66;1171;-68
2021/07/27 10:07:03;;;;;;;;;;;;;;;;;;2141244;66;1317;-69
2021/07/27 10:09:32;;;;;;;;;;;;;;;;;;2138668;66;1893;-67
2021/07/27 10:12:07;;;;;;;;;;;;;;;;;;2138893;66;1684;-67
2021/07/27 10:14:38;;;;;;;;;;;;;;;;;;2139184;59;2287;-70
2021/07/27 10:17:04;;;;;;;;;;;;;;;;;;2140908;66;1184;-69
2021/07/27 10:19:36;;;;;;;;;;;;;;;;;;2139007;59;1568;-70
2021/07/27 10:22:02;;;;;;;;;;;;;;;;;;2141219;66;1996;-70
2021/07/27 10:24:35;;;;;;;;;;;;;;;;;;2141418;66;1268;-67
2021/07/27 10:27:08;;;;;;;;;;;;;;;;;;2142872;66;1132;-71
2021/07/27 10:29:33;;;;;;;;;;;;;;;;;;2141592;66;1301;-71
2021/07/27 10:31:59;;;;;;;;;;;;;;;;;;2143736;66;1246;-69
2021/07/27 10:34:31;;;;;;;;;;;;;;;;;;2139626;59;2137;-68
2021/07/27 10:37:05;;;;;;;;;;;;;;;;;;2141429;66;1147;-70
2021/07/27 10:39:30;;;;;;;;;;;;;;;;;;2140414;67;1413;-71
2021/07/27 10:42:06;;;;;;;;;;;;;;;;;;2141399;66;1972;-70
2021/07/27 10:44:34;;;;;;;;;;;;;;;;;;2140647;66;1359;-70
2021/07/27 10:47:00;;;;;;;;;;;;;;;;;;2141057;59;1306;-71
2021/07/27 10:49:26;;;;;;;;;;;;;;;;;;2140553;59;1284;-69
2021/07/27 10:51:52;;;;;;;;;;;;;;;;;;2141194;66;1004;-71
2021/07/27 10:54:22;;;;;;;;;;;;;;;;;;2141091;66;1196;-71
2021/07/27 10:57:04;;;;;;;;;;;;;;;;;;2142498;59;1885;-70
2021/07/27 10:59:33;;;;;;;;;;;;;;;;;;2138868;66;1396;-69
2021/07/27 11:01:59;;;;;;;;;;;;;;;;;;2142141;59;1930;-71
2021/07/27 11:04:28;;;;;;;;;;;;;;;;;;2142185;66;1443;-71
2021/07/27 11:06:54;;;;;;;;;;;;;;;;;;2139939;59;1573;-70
2021/07/27 11:09:19;;;;;;;;;;;;;;;;;;2140946;66;1254;-69
2021/07/27 11:11:46;;;;;;;;;;;;;;;;;;2141519;66;1136;-70
2021/07/27 11:14:17;;;;;;;;;;;;;;;;;;2141899;66;2282;-69
2021/07/27 11:16:42;;;;;;;;;;;;;;;;;;2140768;67;2328;-70
2021/07/27 11:19:09;;;;;;;;;;;;;;;;;;2141441;59;1971;-69
2021/07/27 11:21:34;;;;;;;;;;;;;;;;;;2141865;67;1057;-70
2021/07/27 11:24:00;;;;;;;;;;;;;;;;;;2142667;67;1928;-68
2021/07/27 11:26:34;;;;;;;;;;;;;;;;;;2141324;67;1254;-71
2021/07/27 11:29:08;;;;;;;;;;;;;;;;;;2143946;67;1223;-71
2021/07/27 11:31:43;;;;;;;;;;;;;;;;;;2141710;67;1070;-70
2021/07/27 11:34:08;;;;;;;;;;;;;;;;;;2142783;59;1247;-70
2021/07/27 11:36:34;;;;;;;;;;;;;;;;;;2142122;67;1479;-70
2021/07/27 11:39:06;;;;;;;;;;;;;;;;;;2142308;67;1214;-69
2021/07/27 11:41:31;;;;;;;;;;;;;;;;;;2143237;67;1140;-70
2021/07/27 11:43:56;;;;;;;;;;;;;;;;;;2143425;67;1979;-71
2021/07/27 11:46:29;;;;;;;;;;;;;;;;;;2141263;67;1232;-70
2021/07/27 11:48:54;;;;;;;;;;;;;;;;;;2141380;59;1451;-71
2021/07/27 11:51:29;;;;;;;;;;;;;;;;;;2138931;66;1283;-70
2021/07/27 11:53:55;;;;;;;;;;;;;;;;;;2141403;66;1947;-69
2021/07/27 11:56:20;;;;;;;;;;;;;;;;;;2140417;59;4015;-70
2021/07/27 11:58:48;;;;;;;;;;;;;;;;;;2140506;66;2199;-68
2021/07/27 12:01:14;;;;;;;;;;;;;;;;;;2140339;59;1620;-70
2021/07/27 12:03:40;;;;;;;;;;;;;;;;;;2141279;66;1928;-69
2021/07/27 12:06:09;;;;;;;;;;;;;;;;;;2141589;66;1614;-70
2021/07/27 12:08:34;;;;;;;;;;;;;;;;;;2141698;66;1333;-71
2021/07/27 12:10:59;;;;;;;;;;;;;;;;;;2140893;67;1305;-70
2021/07/27 12:13:28;;;;;;;;;;;;;;;;;;2142269;66;1338;-71
2021/07/27 12:15:53;;;;;;;;;;;;;;;;;;2139808;66;2271;-70
2021/07/27 12:18:19;;;;;;;;;;;;;;;;;;2141778;59;2655;-70
2021/07/27 12:20:44;;;;;;;;;;;;;;;;;;2141462;66;1334;-70
2021/07/27 12:23:09;;;;;;;;;;;;;;;;;;2142992;66;1980;-71
2021/07/27 12:25:34;;;;;;;;;;;;;;;;;;2142608;66;1412;-70
2021/07/27 12:27:59;;;;;;;;;;;;;;;;;;2144079;66;1273;-71
2021/07/27 12:30:26;;;;;;;;;;;;;;;;;;2142453;66;1923;-70
2021/07/27 12:32:51;;;;;;;;;;;;;;;;;;2142622;66;1220;-70
2021/07/27 12:35:16;;;;;;;;;;;;;;;;;;2141992;66;1531;-68
2021/07/27 12:37:41;;;;;;;;;;;;;;;;;;2142343;66;1283;-70
2021/07/27 12:40:07;;;;;;;;;;;;;;;;;;2142426;66;1353;-70
2021/07/27 12:42:32;;;;;;;;;;;;;;;;;;2141803;66;1932;-71
2021/07/27 12:44:58;;;;;;;;;;;;;;;;;;2142817;66;1075;-71
2021/07/27 12:47:23;;;;;;;;;;;;;;;;;;2144238;59;1366;-70
2021/07/27 12:49:48;;;;;;;;;;;;;;;;;;2141743;59;1432;-71
2021/07/27 12:52:13;;;;;;;;;;;;;;;;;;2141388;66;1637;-70
2021/07/27 12:54:39;;;;;;;;;;;;;;;;;;2141060;66;2265;-69
2021/07/27 12:57:05;;;;;;;;;;;;;;;;;;2142261;66;1164;-69
2021/07/27 12:59:30;;;;;;;;;;;;;;;;;;2140678;59;1462;-71
2021/07/27 13:01:56;;;;;;;;;;;;;;;;;;2141650;59;1925;-69
2021/07/27 13:04:21;;;;;;;;;;;;;;;;;;2142684;66;1137;-70
2021/07/27 13:06:46;;;;;;;;;;;;;;;;;;2142546;66;1202;-70
2021/07/27 13:09:11;;;;;;;;;;;;;;;;;;2142450;66;1997;-68
2021/07/27 13:11:36;;;;;;;;;;;;;;;;;;2141353;66;1696;-71
2021/07/27 13:14:02;;;;;;;;;;;;;;;;;;2141328;66;1427;-69
2021/07/27 13:16:27;;;;;;;;;;;;;;;;;;2140033;66;2306;-69
2021/07/27 13:18:53;;;;;;;;;;;;;;;;;;2140490;59;2420;-69
2021/07/27 13:21:19;;;;;;;;;;;;;;;;;;2139945;59;2180;-70
2021/07/27 13:23:44;;;;;;;;;;;;;;;;;;2140695;66;2226;-69
2021/07/27 13:26:10;;;;;;;;;;;;;;;;;;2142127;66;1097;-71
2021/07/27 13:28:36;;;;;;;;;;;;;;;;;;2141743;66;1211;-70
2021/07/27 13:31:01;;;;;;;;;;;;;;;;;;2144254;66;1195;-69
2021/07/27 13:33:26;;;;;;;;;;;;;;;;;;2140910;66;2048;-70
2021/07/27 13:35:51;;;;;;;;;;;;;;;;;;2139320;59;1920;-69
2021/07/27 13:38:16;;;;;;;;;;;;;;;;;;2139956;59;2263;-67
2021/07/27 13:40:41;;;;;;;;;;;;;;;;;;2141140;66;2113;-71
2021/07/27 13:43:07;;;;;;;;;;;;;;;;;;2140578;66;1936;-69
2021/07/27 13:45:33;;;;;;;;;;;;;;;;;;2140199;59;2298;-71
2021/07/27 13:47:59;;;;;;;;;;;;;;;;;;2140110;59;2085;-71
2021/07/27 13:50:24;;;;;;;;;;;;;;;;;;2140553;59;1407;-71
2021/07/27 13:52:50;;;;;;;;;;;;;;;;;;2140969;66;1296;-71
2021/07/27 13:55:15;;;;;;;;;;;;;;;;;;2140260;59;1932;-67
2021/07/27 13:57:40;;;;;;;;;;;;;;;;;;2140002;59;1974;-68
2021/07/27 14:00:07;;;;;;;;;;;;;;;;;;2140490;66;1647;-71
2021/07/27 14:02:32;;;;;;;;;;;;;;;;;;2141778;59;1951;-70
2021/07/27 14:04:57;;;;;;;;;;;;;;;;;;2140540;66;2508;-69
2021/07/27 14:07:23;;;;;;;;;;;;;;;;;;2140295;58;3565;-71
2021/07/27 14:09:48;;;;;;;;;;;;;;;;;;2140671;66;1951;-71
2021/07/27 14:12:13;;;;;;;;;;;;;;;;;;2141152;66;1374;-70
2021/07/27 14:14:38;;;;;;;;;;;;;;;;;;2140980;66;2461;-71
2021/07/27 14:17:04;;;;;;;;;;;;;;;;;;2141918;66;1665;-71
2021/07/27 14:19:29;;;;;;;;;;;;;;;;;;2142236;59;1484;-71
2021/07/27 14:21:54;;;;;;;;;;;;;;;;;;2138203;59;2203;-70
2021/07/27 14:24:20;;;;;;;;;;;;;;;;;;2142264;58;1710;-72
2021/07/27 14:26:45;;;;;;;;;;;;;;;;;;2143899;66;1427;-72
2021/07/27 14:29:10;;;;;;;;;;;;;;;;;;2141490;66;1445;-73
2021/07/27 14:31:35;;;;;;;;;;;;;;;;;;2140794;66;1669;-70
2021/07/27 14:34:01;;;;;;;;;;;;;;;;;;2140926;67;1759;-70
2021/07/27 14:36:26;;;;;;;;;;;;;;;;;;2143292;66;1579;-73
2021/07/27 14:38:52;;;;;;;;;;;;;;;;;;2142383;59;1679;-72
2021/07/27 14:41:17;;;;;;;;;;;;;;;;;;2143371;66;1458;-73
2021/07/27 14:43:43;;;;;;;;;;;;;;;;;;2141196;66;1932;-73
2021/07/27 14:46:08;;;;;;;;;;;;;;;;;;2141548;66;1508;-70
2021/07/27 14:48:33;;;;;;;;;;;;;;;;;;2141343;59;1860;-70
2021/07/27 14:50:59;;;;;;;;;;;;;;;;;;2140739;66;1505;-68
2021/07/27 14:53:24;;;;;;;;;;;;;;;;;;2143015;66;1528;-71
2021/07/27 14:55:49;;;;;;;;;;;;;;;;;;2142424;59;1652;-71
2021/07/27 14:58:14;;;;;;;;;;;;;;;;;;2141772;66;2190;-71
2021/07/27 15:00:39;;;;;;;;;;;;;;;;;;2141707;59;1810;-72
2021/07/27 15:03:04;;;;;;;;;;;;;;;;;;2141378;59;1931;-71
2021/07/27 15:05:31;;;;;;;;;;;;;;;;;;2141422;66;1844;-75
2021/07/27 15:07:56;;;;;;;;;;;;;;;;;;2138846;59;3064;-71
2021/07/27 15:10:21;;;;;;;;;;;;;;;;;;2141933;66;1579;-77
2021/07/27 15:12:47;;;;;;;;;;;;;;;;;;2141056;66;1479;-69
2021/07/27 15:15:12;;;;;;;;;;;;;;;;;;2140498;66;1456;-74
2021/07/27 15:17:38;;;;;;;;;;;;;;;;;;2142279;59;1582;-70
2021/07/27 15:20:04;;;;;;;;;;;;;;;;;;2141949;67;1453;-72
2021/07/27 15:22:29;;;;;;;;;;;;;;;;;;2140471;67;1928;-71
2021/07/27 15:24:59;;;;;;;;;;;;;;;;;;2141116;66;1380;-73
2021/07/27 15:27:28;;;;;;;;;;;;;;;;;;2140102;59;1676;-73
2021/07/27 15:29:53;;;;;;;;;;;;;;;;;;2143823;66;1547;-72
2021/07/27 15:32:18;;;;;;;;;;;;;;;;;;2142786;66;1235;-74
2021/07/27 15:34:44;;;;;;;;;;;;;;;;;;2140506;66;1697;-72
2021/07/27 15:37:09;;;;;;;;;;;;;;;;;;2142136;66;1729;-71
2021/07/27 15:39:34;;;;;;;;;;;;;;;;;;2142139;66;1482;-70
2021/07/27 15:41:59;;;;;;;;;;;;;;;;;;2140430;59;2097;-72
2021/07/27 15:44:25;;;;;;;;;;;;;;;;;;2142249;66;1458;-74
2021/07/27 15:46:52;;;;;;;;;;;;;;;;;;2143436;66;1183;-74
2021/07/27 15:49:17;;;;;;;;;;;;;;;;;;2141791;59;2059;-74
2021/07/27 15:51:42;;;;;;;;;;;;;;;;;;2142321;66;1471;-72
2021/07/27 15:54:07;;;;;;;;;;;;;;;;;;2142271;66;2428;-72
2021/07/27 15:56:33;;;;;;;;;;;;;;;;;;2141931;58;2446;-70
2021/07/27 15:58:58;;;;;;;;;;;;;;;;;;2141514;66;1646;-70
2021/07/27 16:01:24;;;;;;;;;;;;;;;;;;2142333;59;1406;-72
2021/07/27 16:03:49;;;;;;;;;;;;;;;;;;2142742;66;1933;-69
2021/07/27 16:06:14;;;;;;;;;;;;;;;;;;2142855;66;1494;-70
2021/07/27 16:08:39;;;;;;;;;;;;;;;;;;2140346;60;3193;-71
2021/07/27 16:11:04;;;;;;;;;;;;;;;;;;2141241;66;1885;-70
2021/07/27 16:13:31;;;;;;;;;;;;;;;;;;2141492;66;1484;-71
2021/07/27 16:15:57;;;;;;;;;;;;;;;;;;2141918;66;2285;-69
2021/07/27 16:18:22;;;;;;;;;;;;;;;;;;2141724;59;2092;-73
2021/07/27 16:20:47;;;;;;;;;;;;;;;;;;2138046;59;2385;-70
2021/07/27 16:23:12;;;;;;;;;;;;;;;;;;2137541;59;2316;-72
2021/07/27 16:25:37;;;;;;;;;;;;;;;;;;2138353;59;2603;-70
2021/07/27 16:28:03;;;;;;;;;;;;;;;;;;2136464;59;2472;-72
2021/07/27 16:30:28;;;;;;;;;;;;;;;;;;2140011;58;2071;-74
2021/07/27 16:32:53;;;;;;;;;;;;;;;;;;2138250;58;1931;-70
2021/07/27 16:35:18;;;;;;;;;;;;;;;;;;2139393;58;2019;-73
2021/07/27 16:37:43;;;;;;;;;;;;;;;;;;2142044;66;1581;-71
2021/07/27 16:40:09;;;;;;;;;;;;;;;;;;2140059;66;1397;-73
2021/07/27 16:42:34;;;;;;;;;;;;;;;;;;2139293;59;2004;-72
2021/07/27 16:44:59;;;;;;;;;;;;;;;;;;2138682;59;2019;-72
2021/07/27 16:47:24;;;;;;;;;;;;;;;;;;2133524;59;2263;-72
2021/07/27 16:49:50;;;;;;;;;;;;;;;;;;2136197;59;2274;-70
2021/07/27 16:52:15;;;;;;;;;;;;;;;;;;2136798;59;2383;-72
2021/07/27 16:54:40;;;;;;;;;;;;;;;;;;2138439;59;2401;-75
2021/07/27 16:57:05;;;;;;;;;;;;;;;;;;2137896;59;1913;-73
2021/07/27 16:59:30;;;;;;;;;;;;;;;;;;2138693;59;2091;-69
2021/07/27 17:01:56;;;;;;;;;;;;;;;;;;2139267;59;2483;-71
2021/07/27 17:04:21;;;;;;;;;;;;;;;;;;2137588;59;2172;-72
2021/07/27 17:06:46;;;;;;;;;;;;;;;;;;2135376;59;1912;-72
2021/07/27 17:09:11;;;;;;;;;;;;;;;;;;2138141;59;2469;-71
2021/07/27 17:11:37;;;;;;;;;;;;;;;;;;2138147;59;2510;-69
2021/07/27 17:14:02;;;;;;;;;;;;;;;;;;2139093;59;2469;-73
2021/07/27 17:16:27;;;;;;;;;;;;;;;;;;2140195;59;1928;-70